sensor_id;sensor_type;location;lat;lon;timestamp;P1;durP1;ratioP1;P2;durP2;ratioP2
27495;SDS011;14929;51.336;9.416;2023-10-31T00:00:59;1.20;;;1.20;;
27495;SDS011;14929;51.336;9.416;2023-10-31T00:03:27;1.90;;;1.50;;
27495;SDS011;14929;51.336;9.416;2023-10-31T00:05:56;1.73;;;1.63;;
27495;SDS011;14929;51.336;9.416;2023-10-31T00:08:23;1.50;;;1.40;;
27495;SDS011;14929;51.336;9.416;2023-10-31T00:10:51;1.40;;;1.30;;
27495;SDS011;14929;51.336;9.416;2023-10-31T00:13:18;1.38;;;1.27;;
27495;SDS011;14929;51.336;9.416;2023-10-31T00:15:46;1.65;;;1.48;;
27495;SDS011;14929;51.336;9.416;2023-10-31T00:18:13;1.08;;;1.08;;
27495;SDS011;14929;51.336;9.416;2023-10-31T00:20:41;1.50;;;1.40;;
27495;SDS011;14929;51.336;9.416;2023-10-31T00:23:10;1.50;;;1.40;;
27495;SDS011;14929;51.336;9.416;2023-10-31T00:25:38;1.35;;;1.27;;
27495;SDS011;14929;51.336;9.416;2023-10-31T00:28:06;1.30;;;1.20;;
27495;SDS011;14929;51.336;9.416;2023-10-31T00:30:34;1.40;;;1.27;;
27495;SDS011;14929;51.336;9.416;2023-10-31T00:33:01;1.63;;;1.52;;
27495;SDS011;14929;51.336;9.416;2023-10-31T00:35:29;1.50;;;1.40;;
27495;SDS011;14929;51.336;9.416;2023-10-31T00:37:56;1.33;;;1.23;;
27495;SDS011;14929;51.336;9.416;2023-10-31T00:40:25;1.08;;;1.08;;
27495;SDS011;14929;51.336;9.416;2023-10-31T00:42:53;1.75;;;1.58;;
27495;SDS011;14929;51.336;9.416;2023-10-31T00:45:22;1.50;;;1.40;;
27495;SDS011;14929;51.336;9.416;2023-10-31T00:47:49;1.58;;;1.48;;
27495;SDS011;14929;51.336;9.416;2023-10-31T00:50:17;1.70;;;1.60;;
27495;SDS011;14929;51.336;9.416;2023-10-31T00:52:44;1.20;;;1.10;;
27495;SDS011;14929;51.336;9.416;2023-10-31T00:55:12;1.40;;;1.30;;
27495;SDS011;14929;51.336;9.416;2023-10-31T00:57:41;1.13;;;1.10;;
27495;SDS011;14929;51.336;9.416;2023-10-31T01:00:09;1.67;;;1.58;;
27495;SDS011;14929;51.336;9.416;2023-10-31T01:02:37;1.25;;;1.15;;
27495;SDS011;14929;51.336;9.416;2023-10-31T01:05:05;1.80;;;1.27;;
27495;SDS011;14929;51.336;9.416;2023-10-31T01:07:33;1.42;;;1.27;;
27495;SDS011;14929;51.336;9.416;2023-10-31T01:10:01;1.33;;;1.23;;
27495;SDS011;14929;51.336;9.416;2023-10-31T01:12:29;1.30;;;1.25;;
27495;SDS011;14929;51.336;9.416;2023-10-31T01:14:59;2.42;;;1.45;;
27495;SDS011;14929;51.336;9.416;2023-10-31T01:17:26;1.50;;;1.40;;
27495;SDS011;14929;51.336;9.416;2023-10-31T01:19:54;1.40;;;1.30;;
27495;SDS011;14929;51.336;9.416;2023-10-31T01:22:22;1.35;;;1.30;;
27495;SDS011;14929;51.336;9.416;2023-10-31T01:24:49;1.17;;;1.13;;
27495;SDS011;14929;51.336;9.416;2023-10-31T01:27:17;1.10;;;1.10;;
27495;SDS011;14929;51.336;9.416;2023-10-31T01:29:44;1.40;;;1.30;;
27495;SDS011;14929;51.336;9.416;2023-10-31T01:32:13;0.93;;;0.93;;
27495;SDS011;14929;51.336;9.416;2023-10-31T01:34:41;0.85;;;0.85;;
27495;SDS011;14929;51.336;9.416;2023-10-31T01:37:08;1.40;;;1.30;;
27495;SDS011;14929;51.336;9.416;2023-10-31T01:39:36;1.05;;;1.02;;
27495;SDS011;14929;51.336;9.416;2023-10-31T01:42:04;0.82;;;0.82;;
27495;SDS011;14929;51.336;9.416;2023-10-31T01:44:31;0.90;;;0.90;;
27495;SDS011;14929;51.336;9.416;2023-10-31T01:46:59;0.80;;;0.80;;
27495;SDS011;14929;51.336;9.416;2023-10-31T01:49:28;1.20;;;1.20;;
27495;SDS011;14929;51.336;9.416;2023-10-31T01:51:55;1.15;;;1.15;;
27495;SDS011;14929;51.336;9.416;2023-10-31T01:54:23;0.88;;;0.88;;
27495;SDS011;14929;51.336;9.416;2023-10-31T01:56:51;1.33;;;1.23;;
27495;SDS011;14929;51.336;9.416;2023-10-31T01:59:21;1.30;;;1.30;;
27495;SDS011;14929;51.336;9.416;2023-10-31T02:01:48;1.35;;;1.25;;
27495;SDS011;14929;51.336;9.416;2023-10-31T02:04:16;0.90;;;0.90;;
27495;SDS011;14929;51.336;9.416;2023-10-31T02:06:45;0.90;;;0.90;;
27495;SDS011;14929;51.336;9.416;2023-10-31T02:09:13;0.75;;;0.75;;
27495;SDS011;14929;51.336;9.416;2023-10-31T02:11:40;0.90;;;0.90;;
27495;SDS011;14929;51.336;9.416;2023-10-31T02:14:08;1.17;;;0.90;;
27495;SDS011;14929;51.336;9.416;2023-10-31T02:16:35;0.68;;;0.68;;
27495;SDS011;14929;51.336;9.416;2023-10-31T02:19:03;0.70;;;0.70;;
27495;SDS011;14929;51.336;9.416;2023-10-31T02:21:31;0.70;;;0.60;;
27495;SDS011;14929;51.336;9.416;2023-10-31T02:24:01;0.60;;;0.60;;
27495;SDS011;14929;51.336;9.416;2023-10-31T02:26:30;0.75;;;0.75;;
27495;SDS011;14929;51.336;9.416;2023-10-31T02:28:59;1.17;;;1.17;;
27495;SDS011;14929;51.336;9.416;2023-10-31T02:31:27;0.90;;;0.90;;
27495;SDS011;14929;51.336;9.416;2023-10-31T02:33:55;1.00;;;1.00;;
27495;SDS011;14929;51.336;9.416;2023-10-31T02:36:23;1.60;;;1.50;;
27495;SDS011;14929;51.336;9.416;2023-10-31T02:38:50;1.02;;;1.00;;
27495;SDS011;14929;51.336;9.416;2023-10-31T02:41:19;1.00;;;0.95;;
27495;SDS011;14929;51.336;9.416;2023-10-31T02:43:48;0.93;;;0.93;;
27495;SDS011;14929;51.336;9.416;2023-10-31T02:46:15;0.90;;;0.90;;
27495;SDS011;14929;51.336;9.416;2023-10-31T02:48:44;1.17;;;1.17;;
27495;SDS011;14929;51.336;9.416;2023-10-31T02:51:11;0.90;;;0.90;;
27495;SDS011;14929;51.336;9.416;2023-10-31T02:53:39;0.80;;;0.80;;
27495;SDS011;14929;51.336;9.416;2023-10-31T02:56:07;1.17;;;1.10;;
27495;SDS011;14929;51.336;9.416;2023-10-31T02:58:36;1.50;;;1.40;;
27495;SDS011;14929;51.336;9.416;2023-10-31T03:01:03;1.30;;;1.30;;
27495;SDS011;14929;51.336;9.416;2023-10-31T03:03:31;1.02;;;1.02;;
27495;SDS011;14929;51.336;9.416;2023-10-31T03:05:59;1.13;;;1.13;;
27495;SDS011;14929;51.336;9.416;2023-10-31T03:08:26;1.25;;;1.23;;
27495;SDS011;14929;51.336;9.416;2023-10-31T03:10:54;1.00;;;1.00;;
27495;SDS011;14929;51.336;9.416;2023-10-31T03:13:22;0.95;;;0.95;;
27495;SDS011;14929;51.336;9.416;2023-10-31T03:15:50;1.50;;;1.40;;
27495;SDS011;14929;51.336;9.416;2023-10-31T03:18:18;1.20;;;1.20;;
27495;SDS011;14929;51.336;9.416;2023-10-31T03:20:45;1.77;;;1.67;;
27495;SDS011;14929;51.336;9.416;2023-10-31T03:23:13;1.25;;;1.25;;
27495;SDS011;14929;51.336;9.416;2023-10-31T03:25:41;1.00;;;1.00;;
27495;SDS011;14929;51.336;9.416;2023-10-31T03:28:17;1.20;;;1.20;;
27495;SDS011;14929;51.336;9.416;2023-10-31T03:30:48;1.00;;;1.00;;
27495;SDS011;14929;51.336;9.416;2023-10-31T03:33:17;0.93;;;0.93;;
27495;SDS011;14929;51.336;9.416;2023-10-31T03:35:44;1.25;;;1.17;;
27495;SDS011;14929;51.336;9.416;2023-10-31T03:38:12;1.20;;;1.10;;
27495;SDS011;14929;51.336;9.416;2023-10-31T03:40:40;1.05;;;1.00;;
27495;SDS011;14929;51.336;9.416;2023-10-31T03:43:07;1.40;;;1.30;;
27495;SDS011;14929;51.336;9.416;2023-10-31T03:45:35;1.13;;;1.13;;
27495;SDS011;14929;51.336;9.416;2023-10-31T03:48:04;1.20;;;1.20;;
27495;SDS011;14929;51.336;9.416;2023-10-31T03:50:31;0.90;;;0.90;;
27495;SDS011;14929;51.336;9.416;2023-10-31T03:52:59;1.20;;;1.20;;
27495;SDS011;14929;51.336;9.416;2023-10-31T03:55:26;1.35;;;1.30;;
27495;SDS011;14929;51.336;9.416;2023-10-31T03:57:55;1.08;;;1.08;;
27495;SDS011;14929;51.336;9.416;2023-10-31T04:00:23;0.95;;;0.95;;
27495;SDS011;14929;51.336;9.416;2023-10-31T04:02:50;1.50;;;1.40;;
27495;SDS011;14929;51.336;9.416;2023-10-31T04:05:19;1.13;;;1.02;;
27495;SDS011;14929;51.336;9.416;2023-10-31T04:07:48;1.42;;;1.33;;
27495;SDS011;14929;51.336;9.416;2023-10-31T04:10:16;1.02;;;0.98;;
27495;SDS011;14929;51.336;9.416;2023-10-31T04:12:45;0.90;;;0.90;;
27495;SDS011;14929;51.336;9.416;2023-10-31T04:15:13;0.70;;;0.70;;
27495;SDS011;14929;51.336;9.416;2023-10-31T04:17:40;0.98;;;0.98;;
27495;SDS011;14929;51.336;9.416;2023-10-31T04:20:08;1.10;;;1.10;;
27495;SDS011;14929;51.336;9.416;2023-10-31T04:22:37;0.90;;;0.90;;
27495;SDS011;14929;51.336;9.416;2023-10-31T04:25:05;1.20;;;1.10;;
27495;SDS011;14929;51.336;9.416;2023-10-31T04:27:33;1.00;;;1.00;;
27495;SDS011;14929;51.336;9.416;2023-10-31T04:30:01;1.00;;;1.00;;
27495;SDS011;14929;51.336;9.416;2023-10-31T04:32:29;0.85;;;0.85;;
27495;SDS011;14929;51.336;9.416;2023-10-31T04:34:57;1.10;;;1.10;;
27495;SDS011;14929;51.336;9.416;2023-10-31T04:37:24;1.20;;;1.00;;
27495;SDS011;14929;51.336;9.416;2023-10-31T04:39:53;0.90;;;0.90;;
27495;SDS011;14929;51.336;9.416;2023-10-31T04:42:20;0.95;;;0.95;;
27495;SDS011;14929;51.336;9.416;2023-10-31T04:44:48;1.00;;;1.00;;
27495;SDS011;14929;51.336;9.416;2023-10-31T04:47:15;1.60;;;1.50;;
27495;SDS011;14929;51.336;9.416;2023-10-31T04:49:43;1.02;;;1.00;;
27495;SDS011;14929;51.336;9.416;2023-10-31T04:52:10;0.70;;;0.70;;
27495;SDS011;14929;51.336;9.416;2023-10-31T04:54:38;1.13;;;1.10;;
27495;SDS011;14929;51.336;9.416;2023-10-31T04:57:08;1.05;;;1.05;;
27495;SDS011;14929;51.336;9.416;2023-10-31T04:59:36;1.10;;;1.00;;
27495;SDS011;14929;51.336;9.416;2023-10-31T05:02:03;1.20;;;1.20;;
27495;SDS011;14929;51.336;9.416;2023-10-31T05:04:31;0.88;;;0.88;;
27495;SDS011;14929;51.336;9.416;2023-10-31T05:06:58;0.98;;;0.98;;
27495;SDS011;14929;51.336;9.416;2023-10-31T05:09:26;0.90;;;0.90;;
27495;SDS011;14929;51.336;9.416;2023-10-31T05:11:54;0.80;;;0.80;;
27495;SDS011;14929;51.336;9.416;2023-10-31T05:14:23;1.20;;;1.20;;
27495;SDS011;14929;51.336;9.416;2023-10-31T05:16:50;0.85;;;0.85;;
27495;SDS011;14929;51.336;9.416;2023-10-31T05:19:18;1.20;;;1.20;;
27495;SDS011;14929;51.336;9.416;2023-10-31T05:21:45;1.55;;;1.40;;
27495;SDS011;14929;51.336;9.416;2023-10-31T05:24:13;0.90;;;0.90;;
27495;SDS011;14929;51.336;9.416;2023-10-31T05:26:40;0.98;;;0.98;;
27495;SDS011;14929;51.336;9.416;2023-10-31T05:29:08;1.60;;;1.50;;
27495;SDS011;14929;51.336;9.416;2023-10-31T05:31:37;1.02;;;1.00;;
27495;SDS011;14929;51.336;9.416;2023-10-31T05:34:06;0.90;;;0.90;;
27495;SDS011;14929;51.336;9.416;2023-10-31T05:36:34;1.00;;;1.00;;
27495;SDS011;14929;51.336;9.416;2023-10-31T05:39:02;0.75;;;0.75;;
27495;SDS011;14929;51.336;9.416;2023-10-31T05:41:30;0.90;;;0.90;;
27495;SDS011;14929;51.336;9.416;2023-10-31T05:44:00;0.75;;;0.75;;
27495;SDS011;14929;51.336;9.416;2023-10-31T05:46:28;1.00;;;1.00;;
27495;SDS011;14929;51.336;9.416;2023-10-31T05:48:57;0.90;;;0.90;;
27495;SDS011;14929;51.336;9.416;2023-10-31T05:51:24;0.85;;;0.85;;
27495;SDS011;14929;51.336;9.416;2023-10-31T05:53:52;1.13;;;1.13;;
27495;SDS011;14929;51.336;9.416;2023-10-31T05:56:19;1.52;;;1.10;;
27495;SDS011;14929;51.336;9.416;2023-10-31T05:58:47;1.10;;;1.05;;
27495;SDS011;14929;51.336;9.416;2023-10-31T06:01:15;0.85;;;0.85;;
27495;SDS011;14929;51.336;9.416;2023-10-31T06:03:42;1.10;;;1.10;;
27495;SDS011;14929;51.336;9.416;2023-10-31T06:06:11;0.88;;;0.85;;
27495;SDS011;14929;51.336;9.416;2023-10-31T06:08:39;3.25;;;1.10;;
27495;SDS011;14929;51.336;9.416;2023-10-31T06:11:07;1.02;;;0.95;;
27495;SDS011;14929;51.336;9.416;2023-10-31T06:13:37;1.40;;;0.93;;
27495;SDS011;14929;51.336;9.416;2023-10-31T06:16:04;0.82;;;0.80;;
27495;SDS011;14929;51.336;9.416;2023-10-31T06:18:33;1.00;;;1.00;;
27495;SDS011;14929;51.336;9.416;2023-10-31T06:21:00;0.80;;;0.80;;
27495;SDS011;14929;51.336;9.416;2023-10-31T06:23:29;0.85;;;0.68;;
27495;SDS011;14929;51.336;9.416;2023-10-31T06:25:57;0.90;;;0.90;;
27495;SDS011;14929;51.336;9.416;2023-10-31T06:28:24;0.90;;;0.90;;
27495;SDS011;14929;51.336;9.416;2023-10-31T06:30:52;3.30;;;1.52;;
27495;SDS011;14929;51.336;9.416;2023-10-31T06:33:19;1.20;;;1.10;;
27495;SDS011;14929;51.336;9.416;2023-10-31T06:35:48;1.35;;;0.85;;
27495;SDS011;14929;51.336;9.416;2023-10-31T06:38:16;0.85;;;0.80;;
27495;SDS011;14929;51.336;9.416;2023-10-31T06:40:45;0.77;;;0.77;;
27495;SDS011;14929;51.336;9.416;2023-10-31T06:43:13;1.00;;;1.00;;
27495;SDS011;14929;51.336;9.416;2023-10-31T06:45:40;0.70;;;0.70;;
27495;SDS011;14929;51.336;9.416;2023-10-31T06:48:08;0.68;;;0.68;;
27495;SDS011;14929;51.336;9.416;2023-10-31T06:50:35;0.68;;;0.68;;
27495;SDS011;14929;51.336;9.416;2023-10-31T06:53:03;0.52;;;0.52;;
27495;SDS011;14929;51.336;9.416;2023-10-31T06:55:31;1.45;;;0.50;;
27495;SDS011;14929;51.336;9.416;2023-10-31T06:57:59;0.52;;;0.52;;
27495;SDS011;14929;51.336;9.416;2023-10-31T07:00:27;0.65;;;0.63;;
27495;SDS011;14929;51.336;9.416;2023-10-31T07:02:55;1.38;;;0.73;;
27495;SDS011;14929;51.336;9.416;2023-10-31T07:05:23;0.70;;;0.70;;
27495;SDS011;14929;51.336;9.416;2023-10-31T07:07:51;0.75;;;0.60;;
27495;SDS011;14929;51.336;9.416;2023-10-31T07:10:19;0.50;;;0.50;;
27495;SDS011;14929;51.336;9.416;2023-10-31T07:12:47;0.60;;;0.50;;
27495;SDS011;14929;51.336;9.416;2023-10-31T07:15:16;0.55;;;0.55;;
27495;SDS011;14929;51.336;9.416;2023-10-31T07:17:43;0.35;;;0.35;;
27495;SDS011;14929;51.336;9.416;2023-10-31T07:20:11;0.68;;;0.68;;
27495;SDS011;14929;51.336;9.416;2023-10-31T07:22:38;0.43;;;0.43;;
27495;SDS011;14929;51.336;9.416;2023-10-31T07:25:06;0.50;;;0.50;;
27495;SDS011;14929;51.336;9.416;2023-10-31T07:27:34;0.40;;;0.40;;
27495;SDS011;14929;51.336;9.416;2023-10-31T07:30:02;0.82;;;0.70;;
27495;SDS011;14929;51.336;9.416;2023-10-31T07:32:32;0.50;;;0.50;;
27495;SDS011;14929;51.336;9.416;2023-10-31T07:35:00;0.50;;;0.50;;
27495;SDS011;14929;51.336;9.416;2023-10-31T07:37:27;0.75;;;0.47;;
27495;SDS011;14929;51.336;9.416;2023-10-31T07:39:55;0.45;;;0.45;;
27495;SDS011;14929;51.336;9.416;2023-10-31T07:42:22;0.50;;;0.50;;
27495;SDS011;14929;51.336;9.416;2023-10-31T07:44:50;0.73;;;0.60;;
27495;SDS011;14929;51.336;9.416;2023-10-31T07:47:17;0.63;;;0.63;;
27495;SDS011;14929;51.336;9.416;2023-10-31T07:49:46;0.60;;;0.60;;
27495;SDS011;14929;51.336;9.416;2023-10-31T07:52:14;0.73;;;0.73;;
27495;SDS011;14929;51.336;9.416;2023-10-31T07:54:41;0.55;;;0.55;;
27495;SDS011;14929;51.336;9.416;2023-10-31T07:57:09;0.47;;;0.47;;
27495;SDS011;14929;51.336;9.416;2023-10-31T07:59:37;0.40;;;0.40;;
27495;SDS011;14929;51.336;9.416;2023-10-31T08:02:04;0.70;;;0.70;;
27495;SDS011;14929;51.336;9.416;2023-10-31T08:04:32;0.95;;;0.60;;
27495;SDS011;14929;51.336;9.416;2023-10-31T08:07:01;1.38;;;0.60;;
27495;SDS011;14929;51.336;9.416;2023-10-31T08:09:29;1.42;;;0.60;;
27495;SDS011;14929;51.336;9.416;2023-10-31T08:11:56;0.90;;;0.80;;
27495;SDS011;14929;51.336;9.416;2023-10-31T08:14:24;0.80;;;0.80;;
27495;SDS011;14929;51.336;9.416;2023-10-31T08:16:51;1.02;;;1.02;;
27495;SDS011;14929;51.336;9.416;2023-10-31T08:19:19;0.45;;;0.45;;
27495;SDS011;14929;51.336;9.416;2023-10-31T08:21:46;0.60;;;0.60;;
27495;SDS011;14929;51.336;9.416;2023-10-31T08:24:16;0.73;;;0.73;;
27495;SDS011;14929;51.336;9.416;2023-10-31T08:26:43;0.60;;;0.60;;
27495;SDS011;14929;51.336;9.416;2023-10-31T08:29:11;0.63;;;0.63;;
27495;SDS011;14929;51.336;9.416;2023-10-31T08:31:39;0.50;;;0.50;;
27495;SDS011;14929;51.336;9.416;2023-10-31T08:34:06;0.65;;;0.65;;
27495;SDS011;14929;51.336;9.416;2023-10-31T08:36:35;0.70;;;0.70;;
27495;SDS011;14929;51.336;9.416;2023-10-31T08:39:04;1.02;;;0.93;;
27495;SDS011;14929;51.336;9.416;2023-10-31T08:41:33;0.70;;;0.70;;
27495;SDS011;14929;51.336;9.416;2023-10-31T08:44:02;0.50;;;0.50;;
27495;SDS011;14929;51.336;9.416;2023-10-31T08:46:30;0.82;;;0.77;;
27495;SDS011;14929;51.336;9.416;2023-10-31T08:48:57;0.98;;;0.98;;
27495;SDS011;14929;51.336;9.416;2023-10-31T08:51:25;1.27;;;0.90;;
27495;SDS011;14929;51.336;9.416;2023-10-31T08:53:52;0.88;;;0.88;;
27495;SDS011;14929;51.336;9.416;2023-10-31T08:56:20;0.70;;;0.70;;
27495;SDS011;14929;51.336;9.416;2023-10-31T08:58:49;0.88;;;0.88;;
27495;SDS011;14929;51.336;9.416;2023-10-31T09:01:16;0.70;;;0.70;;
27495;SDS011;14929;51.336;9.416;2023-10-31T09:03:44;1.35;;;1.27;;
27495;SDS011;14929;51.336;9.416;2023-10-31T09:06:11;1.13;;;1.00;;
27495;SDS011;14929;51.336;9.416;2023-10-31T09:08:39;0.80;;;0.80;;
27495;SDS011;14929;51.336;9.416;2023-10-31T09:11:07;0.70;;;0.70;;
27495;SDS011;14929;51.336;9.416;2023-10-31T09:13:34;0.85;;;0.77;;
27495;SDS011;14929;51.336;9.416;2023-10-31T09:16:04;0.80;;;0.80;;
27495;SDS011;14929;51.336;9.416;2023-10-31T09:18:32;0.80;;;0.80;;
27495;SDS011;14929;51.336;9.416;2023-10-31T09:20:59;1.10;;;1.10;;
27495;SDS011;14929;51.336;9.416;2023-10-31T09:23:27;1.10;;;1.10;;
27495;SDS011;14929;51.336;9.416;2023-10-31T09:25:55;3.15;;;1.38;;
27495;SDS011;14929;51.336;9.416;2023-10-31T09:28:23;0.90;;;0.90;;
27495;SDS011;14929;51.336;9.416;2023-10-31T09:30:51;0.70;;;0.70;;
27495;SDS011;14929;51.336;9.416;2023-10-31T09:33:20;1.05;;;0.95;;
27495;SDS011;14929;51.336;9.416;2023-10-31T09:35:47;1.17;;;1.15;;
27495;SDS011;14929;51.336;9.416;2023-10-31T09:38:15;1.10;;;1.10;;
27495;SDS011;14929;51.336;9.416;2023-10-31T09:40:42;1.05;;;1.05;;
27495;SDS011;14929;51.336;9.416;2023-10-31T09:43:10;0.80;;;0.80;;
27495;SDS011;14929;51.336;9.416;2023-10-31T09:45:37;0.88;;;0.88;;
27495;SDS011;14929;51.336;9.416;2023-10-31T09:48:06;0.98;;;0.98;;
27495;SDS011;14929;51.336;9.416;2023-10-31T09:50:35;0.90;;;0.90;;
27495;SDS011;14929;51.336;9.416;2023-10-31T09:53:03;0.90;;;0.90;;
27495;SDS011;14929;51.336;9.416;2023-10-31T09:55:33;0.98;;;0.98;;
27495;SDS011;14929;51.336;9.416;2023-10-31T09:58:00;1.20;;;1.20;;
27495;SDS011;14929;51.336;9.416;2023-10-31T10:00:28;1.40;;;1.30;;
27495;SDS011;14929;51.336;9.416;2023-10-31T10:02:55;1.00;;;1.00;;
27495;SDS011;14929;51.336;9.416;2023-10-31T10:05:24;1.33;;;1.20;;
27495;SDS011;14929;51.336;9.416;2023-10-31T10:07:56;1.13;;;1.13;;
27495;SDS011;14929;51.336;9.416;2023-10-31T10:10:23;1.05;;;1.05;;
27495;SDS011;14929;51.336;9.416;2023-10-31T10:12:51;1.10;;;1.00;;
27495;SDS011;14929;51.336;9.416;2023-10-31T10:15:19;0.90;;;0.90;;
27495;SDS011;14929;51.336;9.416;2023-10-31T10:17:50;0.90;;;0.90;;
27495;SDS011;14929;51.336;9.416;2023-10-31T10:20:17;0.95;;;0.95;;
27495;SDS011;14929;51.336;9.416;2023-10-31T10:22:45;1.23;;;1.00;;
27495;SDS011;14929;51.336;9.416;2023-10-31T10:25:15;1.20;;;1.10;;
27495;SDS011;14929;51.336;9.416;2023-10-31T10:27:44;0.88;;;0.80;;
27495;SDS011;14929;51.336;9.416;2023-10-31T10:30:13;0.70;;;0.70;;
27495;SDS011;14929;51.336;9.416;2023-10-31T10:32:41;0.80;;;0.80;;
27495;SDS011;14929;51.336;9.416;2023-10-31T10:35:09;0.55;;;0.55;;
27495;SDS011;14929;51.336;9.416;2023-10-31T10:37:37;0.60;;;0.60;;
27495;SDS011;14929;51.336;9.416;2023-10-31T10:40:06;0.95;;;0.80;;
27495;SDS011;14929;51.336;9.416;2023-10-31T10:42:40;1.00;;;0.75;;
27495;SDS011;14929;51.336;9.416;2023-10-31T10:45:13;0.50;;;0.50;;
27495;SDS011;14929;51.336;9.416;2023-10-31T10:47:44;1.33;;;1.33;;
27495;SDS011;14929;51.336;9.416;2023-10-31T10:50:13;0.55;;;0.55;;
27495;SDS011;14929;51.336;9.416;2023-10-31T10:52:41;0.50;;;0.50;;
27495;SDS011;14929;51.336;9.416;2023-10-31T10:55:17;0.50;;;0.50;;
27495;SDS011;14929;51.336;9.416;2023-10-31T10:57:51;0.30;;;0.30;;
27495;SDS011;14929;51.336;9.416;2023-10-31T11:00:22;0.30;;;0.30;;
27495;SDS011;14929;51.336;9.416;2023-10-31T11:02:50;0.50;;;0.50;;
27495;SDS011;14929;51.336;9.416;2023-10-31T11:05:19;0.40;;;0.40;;
27495;SDS011;14929;51.336;9.416;2023-10-31T11:07:47;0.38;;;0.38;;
27495;SDS011;14929;51.336;9.416;2023-10-31T11:10:14;0.50;;;0.50;;
27495;SDS011;14929;51.336;9.416;2023-10-31T11:12:43;0.60;;;0.60;;
27495;SDS011;14929;51.336;9.416;2023-10-31T11:15:13;0.47;;;0.47;;
27495;SDS011;14929;51.336;9.416;2023-10-31T11:17:42;0.57;;;0.57;;
27495;SDS011;14929;51.336;9.416;2023-10-31T11:20:14;0.55;;;0.55;;
27495;SDS011;14929;51.336;9.416;2023-10-31T11:22:43;0.65;;;0.50;;
27495;SDS011;14929;51.336;9.416;2023-10-31T11:25:12;0.57;;;0.57;;
27495;SDS011;14929;51.336;9.416;2023-10-31T11:27:43;0.50;;;0.50;;
27495;SDS011;14929;51.336;9.416;2023-10-31T11:30:20;1.65;;;0.60;;
27495;SDS011;14929;51.336;9.416;2023-10-31T11:32:55;0.40;;;0.40;;
27495;SDS011;14929;51.336;9.416;2023-10-31T11:35:24;0.70;;;0.70;;
27495;SDS011;14929;51.336;9.416;2023-10-31T11:38:00;0.50;;;0.50;;
27495;SDS011;14929;51.336;9.416;2023-10-31T11:40:34;0.45;;;0.45;;
27495;SDS011;14929;51.336;9.416;2023-10-31T11:43:03;0.40;;;0.40;;
27495;SDS011;14929;51.336;9.416;2023-10-31T11:45:35;0.45;;;0.45;;
27495;SDS011;14929;51.336;9.416;2023-10-31T11:48:07;0.50;;;0.50;;
27495;SDS011;14929;51.336;9.416;2023-10-31T11:50:35;0.50;;;0.50;;
27495;SDS011;14929;51.336;9.416;2023-10-31T11:53:05;0.88;;;0.82;;
27495;SDS011;14929;51.336;9.416;2023-10-31T11:55:38;0.65;;;0.65;;
27495;SDS011;14929;51.336;9.416;2023-10-31T11:58:14;0.65;;;0.65;;
27495;SDS011;14929;51.336;9.416;2023-10-31T12:00:44;0.60;;;0.60;;
27495;SDS011;14929;51.336;9.416;2023-10-31T12:03:15;0.57;;;0.55;;
27495;SDS011;14929;51.336;9.416;2023-10-31T12:05:52;0.40;;;0.40;;
27495;SDS011;14929;51.336;9.416;2023-10-31T12:08:27;0.50;;;0.50;;
27495;SDS011;14929;51.336;9.416;2023-10-31T12:11:03;0.55;;;0.55;;
27495;SDS011;14929;51.336;9.416;2023-10-31T12:13:33;0.52;;;0.47;;
27495;SDS011;14929;51.336;9.416;2023-10-31T12:16:04;2.30;;;1.10;;
27495;SDS011;14929;51.336;9.416;2023-10-31T12:18:33;0.60;;;0.60;;
27495;SDS011;14929;51.336;9.416;2023-10-31T12:21:01;0.85;;;0.85;;
27495;SDS011;14929;51.336;9.416;2023-10-31T12:23:29;0.85;;;0.85;;
27495;SDS011;14929;51.336;9.416;2023-10-31T12:25:56;0.60;;;0.60;;
27495;SDS011;14929;51.336;9.416;2023-10-31T12:28:25;0.70;;;0.70;;
27495;SDS011;14929;51.336;9.416;2023-10-31T12:30:54;1.17;;;0.70;;
27495;SDS011;14929;51.336;9.416;2023-10-31T12:33:25;0.55;;;0.55;;
27495;SDS011;14929;51.336;9.416;2023-10-31T12:35:56;0.40;;;0.40;;
27495;SDS011;14929;51.336;9.416;2023-10-31T12:38:25;0.80;;;0.80;;
27495;SDS011;14929;51.336;9.416;2023-10-31T12:40:53;1.00;;;0.60;;
27495;SDS011;14929;51.336;9.416;2023-10-31T12:43:22;0.73;;;0.73;;
27495;SDS011;14929;51.336;9.416;2023-10-31T12:45:50;2.10;;;0.95;;
27495;SDS011;14929;51.336;9.416;2023-10-31T12:48:23;0.73;;;0.70;;
27495;SDS011;14929;51.336;9.416;2023-10-31T12:51:05;1.05;;;0.95;;
27495;SDS011;14929;51.336;9.416;2023-10-31T12:53:34;0.73;;;0.73;;
27495;SDS011;14929;51.336;9.416;2023-10-31T12:56:02;2.35;;;0.82;;
27495;SDS011;14929;51.336;9.416;2023-10-31T12:58:30;0.70;;;0.70;;
27495;SDS011;14929;51.336;9.416;2023-10-31T13:00:57;0.73;;;0.73;;
27495;SDS011;14929;51.336;9.416;2023-10-31T13:03:27;1.27;;;0.90;;
27495;SDS011;14929;51.336;9.416;2023-10-31T13:05:55;2.45;;;1.05;;
27495;SDS011;14929;51.336;9.416;2023-10-31T13:08:22;0.93;;;0.93;;
27495;SDS011;14929;51.336;9.416;2023-10-31T13:10:50;0.90;;;0.90;;
27495;SDS011;14929;51.336;9.416;2023-10-31T13:13:19;3.35;;;0.93;;
27495;SDS011;14929;51.336;9.416;2023-10-31T13:15:46;1.02;;;0.98;;
27495;SDS011;14929;51.336;9.416;2023-10-31T13:18:14;1.10;;;1.00;;
27495;SDS011;14929;51.336;9.416;2023-10-31T13:20:43;1.38;;;1.30;;
27495;SDS011;14929;51.336;9.416;2023-10-31T13:23:10;1.30;;;1.20;;
27495;SDS011;14929;51.336;9.416;2023-10-31T13:25:38;2.85;;;1.20;;
27495;SDS011;14929;51.336;9.416;2023-10-31T13:28:05;1.50;;;1.05;;
27495;SDS011;14929;51.336;9.416;2023-10-31T13:30:36;1.35;;;1.25;;
27495;SDS011;14929;51.336;9.416;2023-10-31T13:33:04;1.20;;;1.13;;
27495;SDS011;14929;51.336;9.416;2023-10-31T13:35:32;1.60;;;1.10;;
27495;SDS011;14929;51.336;9.416;2023-10-31T13:38:02;1.13;;;1.05;;
27495;SDS011;14929;51.336;9.416;2023-10-31T13:40:29;0.90;;;0.90;;
27495;SDS011;14929;51.336;9.416;2023-10-31T13:42:57;1.08;;;0.90;;
27495;SDS011;14929;51.336;9.416;2023-10-31T13:45:24;1.63;;;1.30;;
27495;SDS011;14929;51.336;9.416;2023-10-31T13:47:52;1.10;;;1.10;;
27495;SDS011;14929;51.336;9.416;2023-10-31T13:50:19;1.13;;;1.08;;
27495;SDS011;14929;51.336;9.416;2023-10-31T13:52:48;1.42;;;1.30;;
27495;SDS011;14929;51.336;9.416;2023-10-31T13:55:19;1.50;;;1.40;;
27495;SDS011;14929;51.336;9.416;2023-10-31T13:57:46;0.90;;;0.90;;
27495;SDS011;14929;51.336;9.416;2023-10-31T14:00:14;1.70;;;1.60;;
27495;SDS011;14929;51.336;9.416;2023-10-31T14:02:42;1.13;;;1.10;;
27495;SDS011;14929;51.336;9.416;2023-10-31T14:05:09;0.95;;;0.93;;
27495;SDS011;14929;51.336;9.416;2023-10-31T14:07:37;2.78;;;1.73;;
27495;SDS011;14929;51.336;9.416;2023-10-31T14:10:04;0.88;;;0.85;;
27495;SDS011;14929;51.336;9.416;2023-10-31T14:12:34;2.83;;;1.20;;
27495;SDS011;14929;51.336;9.416;2023-10-31T14:15:02;2.88;;;1.30;;
27495;SDS011;14929;51.336;9.416;2023-10-31T14:17:30;2.53;;;1.58;;
27495;SDS011;14929;51.336;9.416;2023-10-31T14:19:58;1.70;;;1.23;;
27495;SDS011;14929;51.336;9.416;2023-10-31T14:22:25;1.92;;;1.60;;
27495;SDS011;14929;51.336;9.416;2023-10-31T14:24:53;1.75;;;1.10;;
27495;SDS011;14929;51.336;9.416;2023-10-31T14:27:20;2.88;;;1.63;;
27495;SDS011;14929;51.336;9.416;2023-10-31T14:29:49;1.52;;;1.30;;
27495;SDS011;14929;51.336;9.416;2023-10-31T14:32:18;3.30;;;2.40;;
27495;SDS011;14929;51.336;9.416;2023-10-31T14:34:46;3.63;;;1.42;;
27495;SDS011;14929;51.336;9.416;2023-10-31T14:37:14;3.45;;;1.40;;
27495;SDS011;14929;51.336;9.416;2023-10-31T14:39:41;3.70;;;1.50;;
27495;SDS011;14929;51.336;9.416;2023-10-31T14:42:09;1.80;;;1.35;;
27495;SDS011;14929;51.336;9.416;2023-10-31T14:44:36;2.15;;;1.30;;
27495;SDS011;14929;51.336;9.416;2023-10-31T14:47:05;0.90;;;0.90;;
27495;SDS011;14929;51.336;9.416;2023-10-31T14:49:34;1.55;;;1.10;;
27495;SDS011;14929;51.336;9.416;2023-10-31T14:52:02;1.00;;;0.90;;
27495;SDS011;14929;51.336;9.416;2023-10-31T14:54:31;1.70;;;1.27;;